SEA weather

Seattle Tacoma International Airport
Seattle, Washington, United States

Public forecast

Using degrees Fahrenheit for public forecast. Weather courtesy of forecast.io.

METAR (pilot weather report)

Retrieved 2018/02/24 10:53 UTC (56 minutes ago):

KSEA 241053Z 17014KT 10SM OVC006 02/01 A2992 RMK AO2 RAE48 SLP142 P0001 T00220011

TAF (pilot weather forecast)

Retrieved 2018/02/24 06:27 UTC (5 hours ago):

TAF KSEA 240525Z 2406/2512 20012G20KT P6SM VCSH SCT007 OVC012 TEMPO 2408/2412 -SHRASN BKN007 FM241800 24012G20KT P6SM VCSH BKN020 OVC030 FM242200 20010KT P6SM BKN040